createdAt,value
2018-08-30T00:00:21.881Z,991.55
2018-08-30T00:01:21.916Z,991.51
2018-08-30T00:02:21.954Z,991.47
2018-08-30T00:03:21.988Z,991.46
2018-08-30T00:04:22.028Z,991.48
2018-08-30T00:05:22.876Z,991.52
2018-08-30T00:06:22.110Z,991.47
2018-08-30T00:07:22.149Z,991.52
2018-08-30T00:08:22.189Z,991.48
2018-08-30T00:09:22.228Z,991.51
2018-08-30T00:10:22.271Z,991.53
2018-08-30T00:11:22.313Z,991.50
2018-08-30T00:12:22.350Z,991.50
2018-08-30T00:13:22.391Z,991.53
2018-08-30T00:14:22.431Z,991.50
2018-08-30T00:15:22.473Z,991.52
2018-08-30T00:16:22.512Z,991.53
2018-08-30T00:17:22.555Z,991.57
2018-08-30T00:18:22.592Z,991.51
2018-08-30T00:19:22.633Z,991.54
2018-08-30T00:20:22.679Z,991.55
2018-08-30T00:21:22.716Z,991.58
2018-08-30T00:22:22.755Z,991.57
2018-08-30T00:23:22.804Z,991.59
2018-08-30T00:24:22.836Z,991.59
2018-08-30T00:25:22.875Z,991.59
2018-08-30T00:26:22.917Z,991.60
2018-08-30T00:27:22.958Z,991.58
2018-08-30T00:28:22.999Z,991.55
2018-08-30T00:29:23.037Z,991.59
2018-08-30T00:30:23.077Z,991.60
2018-08-30T00:31:23.149Z,991.60
2018-08-30T00:32:23.157Z,991.59
2018-08-30T00:33:23.199Z,991.62
2018-08-30T00:34:23.239Z,991.62
2018-08-30T00:35:23.281Z,991.62
2018-08-30T00:36:23.321Z,991.64
2018-08-30T00:37:23.363Z,991.66
2018-08-30T00:38:23.401Z,991.65
2018-08-30T00:39:23.443Z,991.65
2018-08-30T00:40:23.482Z,991.68
2018-08-30T00:41:23.661Z,991.67
2018-08-30T00:42:23.574Z,991.67
2018-08-30T00:43:23.602Z,991.67
2018-08-30T00:44:23.643Z,991.63
2018-08-30T00:45:23.683Z,991.68
2018-08-30T00:46:23.730Z,991.63
2018-08-30T00:47:23.766Z,991.66
2018-08-30T00:48:23.804Z,991.65
2018-08-30T00:49:23.846Z,991.68
2018-08-30T00:50:23.893Z,991.71
2018-08-30T00:51:23.934Z,991.72
2018-08-30T00:52:23.964Z,991.70
2018-08-30T00:53:24.006Z,991.74
2018-08-30T00:54:24.048Z,991.70
2018-08-30T00:55:24.087Z,991.71
2018-08-30T00:56:24.127Z,991.73
2018-08-30T00:57:24.167Z,991.77
2018-08-30T00:58:24.208Z,991.74
2018-08-30T00:59:24.247Z,991.77
2018-08-30T01:00:24.288Z,991.75
2018-08-30T01:01:24.336Z,991.79
2018-08-30T01:02:24.377Z,991.80
2018-08-30T01:03:24.409Z,991.77
2018-08-30T01:04:24.451Z,991.81
2018-08-30T01:05:24.492Z,991.81
2018-08-30T01:06:24.530Z,991.80
2018-08-30T01:07:24.572Z,991.81
2018-08-30T01:08:24.611Z,991.86
2018-08-30T01:09:24.660Z,991.83
2018-08-30T01:10:24.694Z,991.82
2018-08-30T01:11:24.733Z,991.81
2018-08-30T01:12:24.785Z,991.80
2018-08-30T01:13:24.813Z,991.86
2018-08-30T01:14:24.855Z,991.84
2018-08-30T01:15:24.895Z,991.88
2018-08-30T01:16:24.935Z,991.88
2018-08-30T01:17:24.975Z,991.91
2018-08-30T01:18:25.115Z,991.92
2018-08-30T01:19:25.057Z,991.90
2018-08-30T01:20:25.097Z,991.95
2018-08-30T01:21:25.137Z,991.91
2018-08-30T01:22:25.179Z,991.93
2018-08-30T01:23:25.218Z,991.93
2018-08-30T01:24:25.258Z,991.94
2018-08-30T01:25:25.301Z,991.93
2018-08-30T01:26:25.337Z,991.96
2018-08-30T01:27:25.379Z,991.93
2018-08-30T01:28:25.417Z,991.94
2018-08-30T01:29:25.457Z,991.93
2018-08-30T01:30:25.499Z,991.95
2018-08-30T01:31:25.539Z,991.95
2018-08-30T01:32:25.588Z,991.97
2018-08-30T01:33:25.619Z,991.95
2018-08-30T01:34:25.660Z,991.97
2018-08-30T01:35:25.700Z,991.97
2018-08-30T01:36:25.739Z,991.93
2018-08-30T01:37:25.780Z,991.91
2018-08-30T01:38:25.821Z,991.95
2018-08-30T01:39:25.868Z,991.97
2018-08-30T01:40:25.902Z,991.90
2018-08-30T01:41:25.942Z,991.96
2018-08-30T01:42:25.983Z,991.91
2018-08-30T01:43:26.023Z,991.90
2018-08-30T01:44:26.068Z,991.88
2018-08-30T01:45:26.103Z,991.87
2018-08-30T01:46:26.147Z,991.87
2018-08-30T01:47:26.186Z,991.88
2018-08-30T01:48:26.228Z,991.84
2018-08-30T01:49:26.263Z,991.84
2018-08-30T01:50:26.304Z,991.88
2018-08-30T01:51:26.346Z,991.87
2018-08-30T01:52:26.386Z,991.85
2018-08-30T01:53:26.434Z,991.89
2018-08-30T01:54:26.620Z,991.89
2018-08-30T01:55:26.507Z,991.87
2018-08-30T01:56:26.546Z,991.85
2018-08-30T01:57:26.589Z,991.87
2018-08-30T01:58:26.630Z,991.86
2018-08-30T01:59:26.669Z,991.85
2018-08-30T02:00:26.711Z,991.89
2018-08-30T02:01:26.748Z,991.91
2018-08-30T02:02:26.789Z,991.94
2018-08-30T02:03:26.829Z,991.96
2018-08-30T02:04:26.869Z,991.95
2018-08-30T02:05:26.909Z,991.99
2018-08-30T02:06:26.952Z,992.03
2018-08-30T02:07:26.989Z,992.00
2018-08-30T02:08:27.029Z,992.01
2018-08-30T02:09:27.069Z,992.01
2018-08-30T02:10:27.111Z,991.99
2018-08-30T02:11:27.157Z,992.02
2018-08-30T02:12:27.190Z,992.02
2018-08-30T02:13:27.233Z,992.01
2018-08-30T02:14:27.273Z,992.03
2018-08-30T02:15:27.315Z,992.02
2018-08-30T02:16:27.356Z,992.03
2018-08-30T02:17:27.394Z,992.04
2018-08-30T02:18:27.442Z,992.06
2018-08-30T02:19:27.480Z,992.03
2018-08-30T02:20:27.516Z,992.03
2018-08-30T02:21:27.562Z,992.08
2018-08-30T02:22:27.596Z,992.10
2018-08-30T02:23:27.647Z,992.13
2018-08-30T02:24:27.675Z,992.15
2018-08-30T02:25:27.716Z,992.13
2018-08-30T02:26:27.756Z,992.12
2018-08-30T02:27:27.796Z,992.15
2018-08-30T02:28:27.836Z,992.11
2018-08-30T02:29:27.877Z,992.13
2018-08-30T02:30:27.921Z,992.14
2018-08-30T02:31:27.959Z,992.16
2018-08-30T02:32:27.996Z,992.16
2018-08-30T02:33:28.040Z,992.14
2018-08-30T02:34:28.081Z,992.12
2018-08-30T02:35:28.122Z,992.09
2018-08-30T02:36:28.162Z,992.12
2018-08-30T02:37:28.199Z,992.14
2018-08-30T02:38:28.240Z,992.12
2018-08-30T02:39:28.279Z,992.14
2018-08-30T02:40:28.319Z,992.15
2018-08-30T02:41:28.361Z,992.14
2018-08-30T02:42:28.402Z,992.15
2018-08-30T02:43:28.443Z,992.12
2018-08-30T02:44:28.486Z,992.11
2018-08-30T02:45:28.521Z,992.12
2018-08-30T02:46:28.564Z,992.10
2018-08-30T02:47:28.611Z,992.07
2018-08-30T02:48:28.641Z,992.12
2018-08-30T02:49:28.687Z,992.06
2018-08-30T02:50:28.722Z,992.06
2018-08-30T02:51:28.763Z,992.03
2018-08-30T02:52:28.805Z,992.07
2018-08-30T02:53:28.844Z,992.06
2018-08-30T02:54:28.883Z,992.08
2018-08-30T02:55:28.924Z,992.12
2018-08-30T02:56:28.964Z,992.10
2018-08-30T02:57:29.003Z,992.14
2018-08-30T02:58:29.043Z,992.16
2018-08-30T02:59:29.084Z,992.17
2018-08-30T03:00:29.125Z,992.18
2018-08-30T03:01:29.166Z,992.14
2018-08-30T03:02:29.207Z,992.15
2018-08-30T03:03:29.246Z,992.13
2018-08-30T03:04:29.286Z,992.14
2018-08-30T03:05:29.326Z,992.13
2018-08-30T03:06:29.366Z,992.09
2018-08-30T03:07:29.460Z,992.14
2018-08-30T03:08:29.448Z,992.22
2018-08-30T03:09:29.487Z,992.17
2018-08-30T03:10:29.530Z,992.18
2018-08-30T03:11:29.568Z,992.18
2018-08-30T03:12:29.607Z,992.21
2018-08-30T03:13:29.646Z,992.24
2018-08-30T03:14:29.687Z,992.25
2018-08-30T03:15:29.728Z,992.24
2018-08-30T03:16:29.767Z,992.26
2018-08-30T03:17:29.806Z,992.23
2018-08-30T03:18:29.848Z,992.29
2018-08-30T03:19:29.889Z,992.27
2018-08-30T03:20:29.926Z,992.35
2018-08-30T03:21:29.975Z,992.33
2018-08-30T03:22:30.008Z,992.30
2018-08-30T03:23:30.047Z,992.32
2018-08-30T03:24:30.086Z,992.35
2018-08-30T03:25:30.128Z,992.37
2018-08-30T03:26:30.167Z,992.38
2018-08-30T03:27:30.210Z,992.38
2018-08-30T03:28:30.247Z,992.42
2018-08-30T03:29:30.287Z,992.41
2018-08-30T03:30:30.508Z,992.41
2018-08-30T03:31:30.368Z,992.46
2018-08-30T03:32:30.411Z,992.50
2018-08-30T03:33:30.456Z,992.46
2018-08-30T03:34:30.486Z,992.46
2018-08-30T03:35:30.528Z,992.46
2018-08-30T03:36:30.568Z,992.46
2018-08-30T03:37:30.621Z,992.46
2018-08-30T03:38:30.660Z,992.44
2018-08-30T03:39:30.686Z,992.43
2018-08-30T03:40:30.728Z,992.45
2018-08-30T03:41:30.769Z,992.46
2018-08-30T03:42:30.807Z,992.44
2018-08-30T03:43:30.847Z,992.41
2018-08-30T03:44:30.887Z,992.42
2018-08-30T03:45:30.925Z,992.38
2018-08-30T03:46:30.970Z,992.40
2018-08-30T03:47:31.009Z,992.37
2018-08-30T03:48:31.054Z,992.41
2018-08-30T03:49:31.085Z,992.37
2018-08-30T03:50:31.127Z,992.35
2018-08-30T03:51:31.190Z,992.39
2018-08-30T03:52:31.207Z,992.40
2018-08-30T03:53:31.245Z,992.39
2018-08-30T03:54:31.286Z,992.40
2018-08-30T03:55:31.330Z,992.43
2018-08-30T03:56:31.364Z,992.43
2018-08-30T03:57:31.408Z,992.44
2018-08-30T03:58:31.446Z,992.44
2018-08-30T03:59:31.492Z,992.46
2018-08-30T04:00:31.525Z,992.48
2018-08-30T04:01:31.565Z,992.48
2018-08-30T04:02:31.606Z,992.51
2018-08-30T04:03:31.646Z,992.51
2018-08-30T04:04:31.686Z,992.50
2018-08-30T04:05:31.725Z,992.53
2018-08-30T04:06:31.766Z,992.51
2018-08-30T04:07:31.808Z,992.54
2018-08-30T04:08:31.844Z,992.53
2018-08-30T04:09:31.884Z,992.57
2018-08-30T04:10:31.924Z,992.57
2018-08-30T04:11:31.966Z,992.58
2018-08-30T04:12:32.005Z,992.59
2018-08-30T04:13:32.130Z,992.61
2018-08-30T04:14:32.088Z,992.59
2018-08-30T04:15:32.175Z,992.62
2018-08-30T04:16:32.166Z,992.62
2018-08-30T04:17:32.203Z,992.66
2018-08-30T04:18:32.246Z,992.67
2018-08-30T04:19:32.295Z,992.66
2018-08-30T04:20:32.324Z,992.71
2018-08-30T04:21:32.364Z,992.73
2018-08-30T04:22:32.414Z,992.77
2018-08-30T04:23:32.444Z,992.73
2018-08-30T04:24:32.484Z,992.76
2018-08-30T04:25:32.523Z,992.82
2018-08-30T04:26:32.564Z,992.81
2018-08-30T04:27:32.605Z,992.81
2018-08-30T04:28:32.642Z,992.86
2018-08-30T04:29:32.684Z,992.86
2018-08-30T04:30:32.724Z,992.88
2018-08-30T04:31:32.858Z,992.88
2018-08-30T04:32:32.804Z,992.87
2018-08-30T04:33:32.841Z,992.92
2018-08-30T04:34:32.884Z,992.93
2018-08-30T04:35:32.921Z,992.93
2018-08-30T04:36:32.960Z,992.97
2018-08-30T04:37:32.999Z,992.93
2018-08-30T04:38:33.040Z,993.02
2018-08-30T04:39:33.082Z,993.04
2018-08-30T04:40:33.119Z,993.07
2018-08-30T04:41:33.161Z,993.05
2018-08-30T04:42:33.239Z,993.11
2018-08-30T04:43:33.242Z,993.09
2018-08-30T04:44:33.280Z,993.10
2018-08-30T04:45:33.317Z,993.15
2018-08-30T04:46:33.361Z,993.13
2018-08-30T04:47:33.401Z,993.22
2018-08-30T04:48:33.438Z,993.25
2018-08-30T04:49:33.476Z,993.24
2018-08-30T04:50:33.662Z,993.30
2018-08-30T04:51:33.557Z,993.30
2018-08-30T04:52:33.606Z,993.37
2018-08-30T04:53:33.634Z,993.33
2018-08-30T04:54:33.678Z,993.38
2018-08-30T04:55:33.721Z,993.34
2018-08-30T04:56:33.751Z,993.34
2018-08-30T04:57:33.796Z,993.38
2018-08-30T04:58:33.833Z,993.41
2018-08-30T04:59:33.872Z,993.43
2018-08-30T05:00:33.911Z,993.51
2018-08-30T05:01:33.959Z,993.50
2018-08-30T05:02:33.988Z,993.50
2018-08-30T05:03:34.028Z,993.59
2018-08-30T05:04:34.065Z,993.58
2018-08-30T05:05:34.112Z,993.58
2018-08-30T05:06:34.145Z,993.61
2018-08-30T05:07:34.195Z,993.63
2018-08-30T05:08:34.224Z,993.67
2018-08-30T05:09:34.265Z,993.69
2018-08-30T05:10:34.302Z,993.74
2018-08-30T05:11:34.355Z,993.72
2018-08-30T05:12:34.382Z,993.76
2018-08-30T05:13:34.425Z,993.78
2018-08-30T05:14:34.462Z,993.71
2018-08-30T05:15:34.508Z,993.80
2018-08-30T05:16:34.617Z,993.85
2018-08-30T05:17:34.579Z,993.79
2018-08-30T05:18:34.618Z,993.79
2018-08-30T05:19:34.659Z,993.91
2018-08-30T05:20:34.697Z,993.84
2018-08-30T05:21:34.745Z,993.88
2018-08-30T05:22:34.776Z,993.91
2018-08-30T05:23:34.817Z,993.96
2018-08-30T05:24:34.853Z,993.98
2018-08-30T05:25:34.892Z,994.02
2018-08-30T05:26:34.933Z,994.03
2018-08-30T05:27:34.974Z,994.05
2018-08-30T05:28:35.011Z,994.02
2018-08-30T05:29:35.050Z,994.07
2018-08-30T05:30:35.091Z,994.08
2018-08-30T05:31:35.132Z,994.12
2018-08-30T05:32:35.175Z,994.10
2018-08-30T05:33:35.206Z,994.09
2018-08-30T05:34:35.252Z,994.11
2018-08-30T05:35:35.334Z,994.11
2018-08-30T05:36:35.330Z,994.15
2018-08-30T05:37:35.364Z,994.14
2018-08-30T05:38:35.404Z,994.18
2018-08-30T05:39:35.444Z,994.20
2018-08-30T05:40:35.493Z,994.20
2018-08-30T05:41:35.522Z,994.21
2018-08-30T05:42:35.562Z,994.27
2018-08-30T05:43:35.602Z,994.28
2018-08-30T05:44:35.692Z,994.27
2018-08-30T05:45:35.677Z,994.31
2018-08-30T05:46:35.721Z,994.32
2018-08-30T05:47:35.764Z,994.37
2018-08-30T05:48:35.796Z,994.36
2018-08-30T05:49:35.834Z,994.44
2018-08-30T05:50:35.889Z,994.43
2018-08-30T05:51:35.914Z,994.38
2018-08-30T05:52:35.953Z,994.48
2018-08-30T05:53:35.991Z,994.43
2018-08-30T05:54:36.031Z,994.51
2018-08-30T05:55:36.072Z,994.44
2018-08-30T05:56:36.114Z,994.44
2018-08-30T05:57:36.149Z,994.41
2018-08-30T05:58:36.188Z,994.45
2018-08-30T05:59:36.230Z,994.48
2018-08-30T06:00:36.265Z,994.43
2018-08-30T06:01:36.305Z,994.43
2018-08-30T06:02:36.343Z,994.45
2018-08-30T06:03:36.384Z,994.44
2018-08-30T06:04:36.421Z,994.53
2018-08-30T06:05:36.464Z,994.51
2018-08-30T06:06:36.509Z,994.52
2018-08-30T06:07:36.540Z,994.54
2018-08-30T06:08:36.577Z,994.54
2018-08-30T06:09:36.618Z,994.61
2018-08-30T06:10:36.657Z,994.56
2018-08-30T06:11:36.696Z,994.58
2018-08-30T06:12:36.736Z,994.63
2018-08-30T06:13:36.810Z,994.61
2018-08-30T06:14:36.815Z,994.68
2018-08-30T06:15:36.853Z,994.71
2018-08-30T06:16:36.892Z,994.69
2018-08-30T06:17:36.935Z,994.68
2018-08-30T06:18:36.974Z,994.77
2018-08-30T06:19:37.009Z,994.75
2018-08-30T06:20:37.051Z,994.76
2018-08-30T06:21:37.087Z,994.79
2018-08-30T06:22:37.135Z,994.77
2018-08-30T06:23:37.167Z,994.80
2018-08-30T06:24:37.212Z,994.75
2018-08-30T06:25:37.244Z,994.81
2018-08-30T06:26:37.296Z,994.79
2018-08-30T06:27:37.327Z,994.85
2018-08-30T06:28:37.362Z,994.86
2018-08-30T06:29:37.400Z,994.81
2018-08-30T06:30:37.442Z,994.82
2018-08-30T06:31:37.477Z,994.81
2018-08-30T06:32:37.519Z,994.81
2018-08-30T06:33:37.554Z,994.86
2018-08-30T06:34:37.653Z,994.88
2018-08-30T06:35:37.636Z,994.88
2018-08-30T06:36:37.672Z,994.88
2018-08-30T06:37:37.720Z,994.93
2018-08-30T06:38:37.769Z,994.90
2018-08-30T06:39:37.790Z,994.91
2018-08-30T06:40:37.837Z,994.90
2018-08-30T06:41:37.875Z,994.92
2018-08-30T06:42:37.916Z,995.01
2018-08-30T06:43:37.947Z,994.95
2018-08-30T06:44:37.985Z,995.00
2018-08-30T06:45:38.025Z,995.01
2018-08-30T06:46:38.066Z,995.03
2018-08-30T06:47:38.104Z,995.04
2018-08-30T06:48:38.233Z,995.04
2018-08-30T06:49:38.182Z,995.08
2018-08-30T06:50:38.219Z,995.05
2018-08-30T06:51:38.269Z,995.13
2018-08-30T06:52:38.299Z,995.15
2018-08-30T06:53:38.337Z,995.09
2018-08-30T06:54:38.376Z,995.12
2018-08-30T06:55:38.414Z,995.19
2018-08-30T06:56:38.452Z,995.18
2018-08-30T06:57:38.492Z,995.20
2018-08-30T06:58:38.583Z,995.24
2018-08-30T06:59:38.572Z,995.29
2018-08-30T07:00:38.609Z,995.28
2018-08-30T07:01:38.650Z,995.29
2018-08-30T07:02:38.689Z,995.28
2018-08-30T07:03:38.737Z,995.26
2018-08-30T07:04:38.766Z,995.26
2018-08-30T07:05:38.807Z,995.32
2018-08-30T07:06:38.845Z,995.33
2018-08-30T07:07:38.883Z,995.32
2018-08-30T07:08:38.923Z,995.29
2018-08-30T07:09:38.961Z,995.35
2018-08-30T07:10:39.002Z,995.37
2018-08-30T07:11:39.048Z,995.41
2018-08-30T07:12:39.096Z,995.32
2018-08-30T07:13:39.119Z,995.38
2018-08-30T07:14:39.263Z,995.42
2018-08-30T07:15:39.204Z,995.45
2018-08-30T07:16:39.237Z,995.45
2018-08-30T07:17:39.275Z,995.46
2018-08-30T07:18:39.317Z,995.49
2018-08-30T07:19:39.353Z,995.50
2018-08-30T07:20:39.394Z,995.54
2018-08-30T07:21:39.431Z,995.56
2018-08-30T07:22:39.471Z,995.57
2018-08-30T07:23:39.511Z,995.61
2018-08-30T07:24:39.550Z,995.62
2018-08-30T07:25:39.588Z,995.65
2018-08-30T07:26:39.627Z,995.67
2018-08-30T07:27:39.666Z,995.68
2018-08-30T07:28:39.871Z,995.69
2018-08-30T07:29:39.746Z,995.70
2018-08-30T07:30:39.783Z,995.74
2018-08-30T07:31:39.826Z,995.75
2018-08-30T07:32:39.861Z,995.77
2018-08-30T07:33:39.904Z,995.83
2018-08-30T07:34:39.992Z,995.85
2018-08-30T07:35:39.990Z,995.80
2018-08-30T07:36:40.017Z,995.79
2018-08-30T07:37:40.065Z,995.85
2018-08-30T07:38:40.105Z,995.86
2018-08-30T07:39:40.137Z,995.90
2018-08-30T07:40:40.175Z,995.86
2018-08-30T07:41:40.213Z,995.91
2018-08-30T07:42:40.254Z,995.91
2018-08-30T07:43:40.293Z,995.98
2018-08-30T07:44:40.466Z,996.00
2018-08-30T07:45:40.370Z,996.02
2018-08-30T07:46:40.412Z,996.09
2018-08-30T07:47:40.448Z,996.07
2018-08-30T07:48:40.509Z,996.04
2018-08-30T07:49:40.528Z,996.10
2018-08-30T07:50:40.571Z,996.08
2018-08-30T07:51:40.606Z,996.11
2018-08-30T07:52:40.649Z,996.18
2018-08-30T07:53:40.684Z,996.20
2018-08-30T07:54:40.790Z,996.16
2018-08-30T07:55:40.762Z,996.19
2018-08-30T07:56:40.802Z,996.19
2018-08-30T07:57:40.839Z,996.24
2018-08-30T07:58:40.880Z,996.24
2018-08-30T07:59:40.918Z,996.24
2018-08-30T08:00:40.956Z,996.27
2018-08-30T08:01:41.001Z,996.27
2018-08-30T08:02:41.036Z,996.23
2018-08-30T08:03:41.075Z,996.29
2018-08-30T08:04:41.113Z,996.27
2018-08-30T08:05:41.153Z,996.32
2018-08-30T08:06:41.199Z,996.29
2018-08-30T08:07:41.231Z,996.32
2018-08-30T08:08:41.270Z,996.34
2018-08-30T08:09:41.308Z,996.38
2018-08-30T08:10:41.350Z,996.33
2018-08-30T08:11:41.399Z,996.33
2018-08-30T08:12:41.428Z,996.38
2018-08-30T08:13:41.466Z,996.39
2018-08-30T08:14:41.505Z,996.41
2018-08-30T08:15:41.547Z,996.44
2018-08-30T08:16:41.585Z,996.46
2018-08-30T08:17:41.624Z,996.45
2018-08-30T08:18:41.661Z,996.51
2018-08-30T08:19:41.701Z,996.51
2018-08-30T08:20:41.790Z,996.53
2018-08-30T08:21:41.780Z,996.51
2018-08-30T08:22:41.818Z,996.56
2018-08-30T08:23:41.863Z,996.50
2018-08-30T08:24:41.899Z,996.49
2018-08-30T08:25:41.934Z,996.53
2018-08-30T08:26:41.976Z,996.50
2018-08-30T08:27:42.017Z,996.51
2018-08-30T08:28:42.063Z,996.59
2018-08-30T08:29:42.093Z,996.66
2018-08-30T08:30:42.131Z,996.59
2018-08-30T08:31:42.173Z,996.71
2018-08-30T08:32:42.217Z,996.78
2018-08-30T08:33:42.261Z,996.85
2018-08-30T08:34:42.290Z,996.86
2018-08-30T08:35:42.327Z,996.81
2018-08-30T08:36:42.366Z,996.77
2018-08-30T08:37:42.407Z,996.80
2018-08-30T08:38:42.447Z,996.81
2018-08-30T08:39:42.486Z,996.83
2018-08-30T08:40:42.565Z,996.83
2018-08-30T08:41:42.719Z,996.81
2018-08-30T08:42:42.604Z,996.80
2018-08-30T08:43:42.643Z,996.85
2018-08-30T08:44:42.682Z,996.79
2018-08-30T08:45:42.729Z,996.86
2018-08-30T08:46:42.762Z,996.88
2018-08-30T08:47:42.844Z,996.83
2018-08-30T08:48:42.842Z,996.84
2018-08-30T08:49:42.891Z,996.81
2018-08-30T08:50:42.923Z,996.84
2018-08-30T08:51:42.961Z,996.87
2018-08-30T08:52:43.000Z,996.83
2018-08-30T08:53:43.047Z,996.86
2018-08-30T08:54:43.080Z,996.89
2018-08-30T08:55:43.129Z,996.85
2018-08-30T08:56:43.162Z,996.91
2018-08-30T08:57:43.202Z,996.93
2018-08-30T08:58:43.285Z,996.93
2018-08-30T08:59:43.288Z,996.92
2018-08-30T09:00:43.328Z,996.92
2018-08-30T09:01:43.359Z,996.93
2018-08-30T09:02:43.399Z,996.87
2018-08-30T09:03:43.440Z,996.83
2018-08-30T09:04:43.481Z,996.82
2018-08-30T09:05:43.521Z,996.95
2018-08-30T09:06:43.559Z,996.96
2018-08-30T09:07:43.789Z,997.00
2018-08-30T09:08:43.639Z,996.97
2018-08-30T09:09:43.678Z,997.00
2018-08-30T09:10:43.720Z,997.13
2018-08-30T09:11:43.759Z,997.16
2018-08-30T09:12:43.799Z,997.18
2018-08-30T09:13:43.841Z,997.16
2018-08-30T09:14:43.880Z,997.21
2018-08-30T09:15:43.919Z,997.14
2018-08-30T09:16:43.962Z,997.20
2018-08-30T09:17:43.999Z,997.18
2018-08-30T09:18:44.041Z,997.12
2018-08-30T09:19:44.082Z,997.23
2018-08-30T09:20:44.126Z,997.18
2018-08-30T09:21:44.163Z,997.19
2018-08-30T09:22:44.204Z,997.20
2018-08-30T09:23:44.245Z,997.25
2018-08-30T09:24:44.303Z,997.31
2018-08-30T09:25:44.326Z,997.32
2018-08-30T09:26:44.411Z,997.44
2018-08-30T09:27:44.406Z,997.39
2018-08-30T09:28:44.496Z,997.36
2018-08-30T09:29:44.486Z,997.35
2018-08-30T09:30:44.528Z,997.40
2018-08-30T09:31:44.569Z,997.37
2018-08-30T09:32:44.609Z,997.31
2018-08-30T09:33:44.698Z,997.21
2018-08-30T09:34:44.693Z,997.30
2018-08-30T09:35:44.733Z,997.38
2018-08-30T09:36:44.771Z,997.48
2018-08-30T09:37:44.815Z,997.41
2018-08-30T09:38:44.861Z,997.26
2018-08-30T09:39:44.904Z,997.27
2018-08-30T09:40:44.935Z,997.28
2018-08-30T09:41:44.976Z,997.27
2018-08-30T09:42:45.017Z,997.25
2018-08-30T09:43:45.076Z,997.23
2018-08-30T09:44:45.106Z,997.27
2018-08-30T09:45:45.140Z,997.31
2018-08-30T09:46:45.181Z,997.36
2018-08-30T09:47:45.220Z,997.48
2018-08-30T09:48:45.263Z,997.47
2018-08-30T09:49:45.354Z,997.48
2018-08-30T09:50:45.343Z,997.48
2018-08-30T09:51:45.385Z,997.42
2018-08-30T09:52:45.428Z,997.36
2018-08-30T09:53:45.468Z,997.31
2018-08-30T09:54:45.511Z,997.40
2018-08-30T09:55:45.583Z,997.47
2018-08-30T09:56:45.627Z,997.49
2018-08-30T09:57:45.631Z,997.46
2018-08-30T09:58:45.672Z,997.47
2018-08-30T09:59:45.712Z,997.47
2018-08-30T10:00:45.754Z,997.44
2018-08-30T10:01:45.794Z,997.42
2018-08-30T10:02:45.836Z,997.31
2018-08-30T10:03:45.930Z,997.32
2018-08-30T10:04:45.993Z,997.26
2018-08-30T10:05:45.974Z,997.30
2018-08-30T10:06:46.000Z,997.29
2018-08-30T10:07:46.043Z,997.33
2018-08-30T10:08:46.083Z,997.33
2018-08-30T10:09:46.124Z,997.30
2018-08-30T10:10:46.170Z,997.33
2018-08-30T10:11:46.204Z,997.33
2018-08-30T10:12:46.246Z,997.25
2018-08-30T10:13:46.287Z,997.20
2018-08-30T10:14:46.329Z,997.21
2018-08-30T10:15:46.425Z,997.26
2018-08-30T10:16:46.412Z,997.23
2018-08-30T10:17:46.451Z,997.26
2018-08-30T10:18:46.502Z,997.40
2018-08-30T10:19:46.535Z,997.50
2018-08-30T10:20:46.575Z,997.46
2018-08-30T10:21:46.616Z,997.55
2018-08-30T10:22:46.659Z,997.54
2018-08-30T10:23:46.697Z,997.42
2018-08-30T10:24:46.737Z,997.36
2018-08-30T10:25:46.779Z,997.26
2018-08-30T10:26:46.836Z,997.35
2018-08-30T10:27:46.860Z,997.32
2018-08-30T10:28:46.902Z,997.33
2018-08-30T10:29:46.945Z,997.43
2018-08-30T10:30:46.983Z,997.56
2018-08-30T10:31:47.126Z,997.65
2018-08-30T10:32:47.066Z,997.67
2018-08-30T10:33:47.105Z,997.71
2018-08-30T10:34:47.150Z,997.67
2018-08-30T10:35:47.187Z,997.65
2018-08-30T10:36:47.280Z,997.63
2018-08-30T10:37:47.273Z,997.63
2018-08-30T10:38:47.309Z,997.64
2018-08-30T10:39:47.350Z,997.67
2018-08-30T10:40:47.389Z,997.74
2018-08-30T10:41:47.436Z,997.76
2018-08-30T10:42:47.526Z,997.78
2018-08-30T10:43:47.510Z,997.76
2018-08-30T10:44:47.556Z,997.77
2018-08-30T10:45:47.593Z,997.73
2018-08-30T10:46:47.639Z,997.78
2018-08-30T10:47:47.674Z,997.73
2018-08-30T10:48:47.727Z,997.77
2018-08-30T10:49:47.774Z,997.77
2018-08-30T10:50:47.796Z,997.75
2018-08-30T10:51:47.837Z,997.70
2018-08-30T10:52:47.876Z,997.76
2018-08-30T10:53:47.921Z,997.84
2018-08-30T10:54:47.957Z,997.82
2018-08-30T10:55:48.009Z,997.81
2018-08-30T10:56:48.038Z,997.81
2018-08-30T10:57:48.079Z,997.78
2018-08-30T10:58:48.121Z,997.89
2018-08-30T10:59:48.161Z,997.80
2018-08-30T11:00:48.202Z,997.84
2018-08-30T11:01:48.260Z,997.86
2018-08-30T11:02:48.282Z,997.86
2018-08-30T11:03:48.459Z,997.91
2018-08-30T11:04:48.363Z,997.90
2018-08-30T11:05:48.405Z,997.91
2018-08-30T11:06:48.470Z,997.91
2018-08-30T11:07:48.486Z,997.90
2018-08-30T11:08:48.526Z,997.94
2018-08-30T11:09:48.592Z,997.92
2018-08-30T11:10:48.608Z,997.93
2018-08-30T11:11:48.653Z,997.97
2018-08-30T11:12:48.776Z,997.95
2018-08-30T11:13:48.728Z,997.99
2018-08-30T11:14:48.770Z,998.00
2018-08-30T11:15:48.808Z,997.98
2018-08-30T11:16:48.851Z,998.02
2018-08-30T11:17:48.891Z,997.95
2018-08-30T11:18:48.933Z,997.97
2018-08-30T11:19:48.973Z,997.95
2018-08-30T11:20:49.114Z,997.96
2018-08-30T11:21:49.056Z,997.94
2018-08-30T11:22:49.094Z,997.92
2018-08-30T11:23:49.156Z,997.97
2018-08-30T11:24:49.184Z,997.96
2018-08-30T11:25:49.217Z,997.94
2018-08-30T11:26:49.257Z,997.93
2018-08-30T11:27:49.299Z,997.93
2018-08-30T11:28:49.339Z,997.94
2018-08-30T11:29:49.380Z,997.99
2018-08-30T11:30:49.420Z,998.05
2018-08-30T11:31:49.459Z,997.99
2018-08-30T11:32:49.515Z,998.02
2018-08-30T11:33:49.543Z,998.06
2018-08-30T11:34:49.603Z,998.10
2018-08-30T11:35:49.629Z,998.13
2018-08-30T11:36:49.666Z,998.06
2018-08-30T11:37:49.709Z,998.12
2018-08-30T11:38:49.747Z,998.18
2018-08-30T11:39:49.788Z,998.15
2018-08-30T11:40:49.826Z,998.18
2018-08-30T11:41:49.903Z,998.18
2018-08-30T11:42:49.911Z,998.21
2018-08-30T11:43:49.950Z,998.20
2018-08-30T11:44:49.991Z,998.25
2018-08-30T11:45:50.031Z,998.24
2018-08-30T11:46:50.081Z,998.26
2018-08-30T11:47:50.114Z,998.21
2018-08-30T11:48:50.155Z,998.23
2018-08-30T11:49:50.196Z,998.21
2018-08-30T11:50:50.238Z,998.19
2018-08-30T11:51:50.278Z,998.19
2018-08-30T11:52:50.319Z,998.19
2018-08-30T11:53:50.358Z,998.17
2018-08-30T11:54:50.405Z,998.17
2018-08-30T11:55:50.442Z,998.19
2018-08-30T11:56:50.480Z,998.21
2018-08-30T11:57:50.522Z,998.24
2018-08-30T11:58:50.565Z,998.17
2018-08-30T11:59:50.614Z,998.21
2018-08-30T12:00:50.684Z,998.20
2018-08-30T12:01:50.688Z,998.18
2018-08-30T12:02:50.729Z,998.20
2018-08-30T12:03:50.773Z,998.19
2018-08-30T12:04:50.811Z,998.18
2018-08-30T12:05:50.853Z,998.19
2018-08-30T12:06:50.942Z,998.20
2018-08-30T12:07:50.964Z,998.18
2018-08-30T12:08:50.975Z,998.27
2018-08-30T12:09:51.017Z,998.29
2018-08-30T12:10:51.188Z,998.28
2018-08-30T12:11:51.104Z,998.35
2018-08-30T12:12:51.191Z,998.32
2018-08-30T12:13:51.181Z,998.34
2018-08-30T12:14:51.225Z,998.31
2018-08-30T12:15:51.266Z,998.37
2018-08-30T12:16:51.307Z,998.39
2018-08-30T12:17:51.352Z,998.41
2018-08-30T12:18:51.471Z,998.39
2018-08-30T12:19:51.433Z,998.42
2018-08-30T12:20:51.495Z,998.36
2018-08-30T12:21:51.517Z,998.32
2018-08-30T12:22:51.556Z,998.34
2018-08-30T12:23:51.598Z,998.29
2018-08-30T12:24:51.638Z,998.28
2018-08-30T12:25:51.680Z,998.28
2018-08-30T12:26:51.732Z,998.29
2018-08-30T12:27:51.768Z,998.34
2018-08-30T12:28:51.862Z,998.37